Time;durP1;ratioP1;P1;durP2;ratioP2;P2;SDS_P1;SDS_P2;PMS_P1;PMS_P2;Temp;Humidity;BMP_temperature;BMP_pressure;BME280_temperature;BME280_humidity;BME280_pressure;Samples;Min_cycle;Max_cycle;Signal;HPM_P1;HPM_P2
2023/09/06 00:01:45;;;;;;;;;14.67;14.00;;;;;25.91;100.00;101360.25;5070734;28;45516;-75
2023/09/06 00:04:11;;;;;;;;;19.33;15.33;;;;;25.90;100.00;101361.22;5067134;28;67540;-75
2023/09/06 00:06:36;;;;;;;;;18.67;17.67;;;;;25.91;100.00;101357.56;5060261;27;45334;-74
2023/09/06 00:09:02;;;;;;;;;16.00;16.00;;;;;25.88;100.00;101359.50;5058002;28;45576;-74
2023/09/06 00:11:28;;;;;;;;;16.67;15.00;;;;;25.87;100.00;101364.03;5058374;28;45332;-74
2023/09/06 00:13:53;;;;;;;;;19.00;16.33;;;;;25.88;100.00;101357.69;5065298;28;45633;-74
2023/09/06 00:16:19;;;;;;;;;17.67;16.67;;;;;25.86;100.00;101356.88;5057437;28;45481;-74
2023/09/06 00:18:44;;;;;;;;;15.33;15.33;;;;;25.86;100.00;101356.88;5056255;28;45201;-74
2023/09/06 00:21:09;;;;;;;;;17.67;15.67;;;;;25.80;100.00;101355.31;5057653;28;45453;-74
2023/09/06 00:23:35;;;;;;;;;19.67;17.00;;;;;25.79;100.00;101352.69;5057232;28;45771;-75
2023/09/06 00:26:00;;;;;;;;;19.67;16.67;;;;;25.79;100.00;101350.00;5055556;28;45506;-74
2023/09/06 00:28:26;;;;;;;;;18.00;18.00;;;;;25.77;100.00;101347.34;5075710;28;45326;-74
2023/09/06 00:30:52;;;;;;;;;17.67;17.67;;;;;25.75;100.00;101348.38;5077115;27;47166;-74
2023/09/06 00:33:17;;;;;;;;;18.00;16.00;;;;;25.73;100.00;101352.94;5067760;27;45290;-74
2023/09/06 00:35:43;;;;;;;;;16.67;16.67;;;;;25.72;100.00;101348.44;5056812;28;45414;-74
2023/09/06 00:38:09;;;;;;;;;21.67;18.67;;;;;25.71;100.00;101349.41;5057298;28;45378;-74
2023/09/06 00:40:40;;;;;;;;;16.33;14.67;;;;;25.69;100.00;101354.00;5068759;28;46748;-74
2023/09/06 00:43:06;;;;;;;;;19.33;17.00;;;;;25.65;100.00;101350.56;5057039;28;45829;-74
2023/09/06 00:45:41;;;;;;;;;18.67;17.33;;;;;25.66;100.00;101348.72;5059265;28;45247;-73
2023/09/06 00:48:07;;;;;;;;;24.00;18.00;;;;;25.64;100.00;101340.69;5075733;28;45401;-74
2023/09/06 00:50:34;;;;;;;;;19.67;18.67;;;;;25.63;100.00;101348.88;5057418;27;45314;-74
2023/09/06 00:52:59;;;;;;;;;18.00;17.00;;;;;25.57;100.00;101350.91;5056919;28;45596;-75
2023/09/06 00:55:25;;;;;;;;;17.67;17.67;;;;;25.55;100.00;101355.47;5056426;28;45346;-74
2023/09/06 00:57:51;;;;;;;;;20.67;18.00;;;;;25.55;100.00;101351.91;5056626;28;45455;-74
2023/09/06 01:00:22;;;;;;;;;21.67;16.67;;;;;25.53;100.00;101351.97;5064286;28;45543;-74
2023/09/06 01:02:48;;;;;;;;;18.33;15.00;;;;;25.51;100.00;101352.97;5068415;28;47279;-74
2023/09/06 01:05:15;;;;;;;;;18.33;18.33;;;;;25.47;100.00;101351.34;5060740;28;45482;-74
2023/09/06 01:07:44;;;;;;;;;18.00;14.33;;;;;25.50;100.00;101353.91;5077171;27;45445;-74
2023/09/06 01:10:09;;;;;;;;;16.00;16.00;;;;;25.47;100.00;101354.06;5071227;28;45421;-74
2023/09/06 01:12:35;;;;;;;;;20.00;15.00;;;;;25.44;100.00;101351.47;5063800;28;45451;-74
2023/09/06 01:15:03;;;;;;;;;16.67;15.00;;;;;25.43;100.00;101353.31;5067323;27;45372;-74
2023/09/06 01:17:31;;;;;;;;;20.67;17.00;;;;;25.40;100.00;101358.81;5073597;28;46527;-73
2023/09/06 01:20:16;;;;;;;;;17.33;15.33;;;;;25.36;100.00;101351.81;5054903;28;46107;-75
2023/09/06 01:22:51;;;;;;;;;15.33;15.33;;;;;25.36;100.00;101356.34;5073524;28;46588;-74
2023/09/06 01:25:16;;;;;;;;;17.00;17.00;;;;;25.33;100.00;101346.53;5075117;28;45274;-74
2023/09/06 01:27:42;;;;;;;;;17.00;16.00;;;;;25.31;100.00;101341.19;5059171;27;45454;-74
2023/09/06 01:30:08;;;;;;;;;16.00;15.67;;;;;25.30;100.00;101341.22;5058087;28;45438;-75
2023/09/06 01:32:34;;;;;;;;;16.00;16.00;;;;;25.30;100.00;101347.56;5059702;28;46131;-73
2023/09/06 01:34:59;;;;;;;;;16.00;15.00;;;;;25.27;100.00;101346.78;5059565;27;45364;-74
2023/09/06 01:37:25;;;;;;;;;18.00;15.00;;;;;25.26;100.00;101353.16;5059817;28;45366;-73
2023/09/06 01:39:50;;;;;;;;;16.67;15.67;;;;;25.25;100.00;101354.09;5065406;28;45405;-74
2023/09/06 01:42:22;;;;;;;;;15.67;15.33;;;;;25.25;100.00;101348.69;5059665;28;46540;-75
2023/09/06 01:44:47;;;;;;;;;17.33;16.67;;;;;25.25;100.00;101357.69;5059879;28;45273;-74
2023/09/06 01:47:12;;;;;;;;;16.67;13.33;;;;;25.20;100.00;101348.88;5075943;28;45427;-76
2023/09/06 01:49:38;;;;;;;;;16.67;14.00;;;;;25.18;100.00;101353.44;5077650;28;45269;-74
2023/09/06 01:52:05;;;;;;;;;16.33;15.33;;;;;25.21;100.00;101361.44;5078538;27;71304;-74
2023/09/06 01:54:30;;;;;;;;;13.33;12.67;;;;;25.18;100.00;101355.28;5064338;27;45412;-74
2023/09/06 01:56:55;;;;;;;;;19.33;17.33;;;;;25.14;100.00;101348.22;5059525;28;45384;-74
2023/09/06 01:59:21;;;;;;;;;13.33;13.00;;;;;25.14;100.00;101359.03;5058999;28;59572;-74
2023/09/06 02:01:46;;;;;;;;;16.33;14.00;;;;;25.13;100.00;101360.88;5070456;28;67285;-74
2023/09/06 02:04:11;;;;;;;;;16.33;14.67;;;;;25.12;100.00;101367.22;5073038;27;45472;-74
2023/09/06 02:06:37;;;;;;;;;17.00;13.67;;;;;25.11;100.00;101364.59;5079618;27;45233;-73
2023/09/06 02:09:03;;;;;;;;;16.33;14.00;;;;;25.07;100.00;101363.81;5065974;27;59243;-74
2023/09/06 02:11:30;;;;;;;;;15.00;13.33;;;;;25.07;100.00;101364.69;5059499;28;45807;-74
2023/09/06 02:13:56;;;;;;;;;14.67;14.67;;;;;25.04;100.00;101367.50;5068437;28;45339;-73
2023/09/06 02:16:21;;;;;;;;;15.33;13.00;;;;;25.03;100.00;101371.13;5077728;27;62486;-77
2023/09/06 02:18:47;;;;;;;;;17.00;14.67;;;;;25.03;100.00;101367.53;5079489;27;45683;-74
2023/09/06 02:21:12;;;;;;;;;12.00;12.00;;;;;25.02;100.00;101369.38;5076540;27;69887;-74
2023/09/06 02:23:37;;;;;;;;;18.00;15.00;;;;;25.02;100.00;101366.66;5078265;27;67061;-73
2023/09/06 02:26:03;;;;;;;;;15.00;14.00;;;;;25.02;100.00;101363.97;5077221;27;45752;-76
2023/09/06 02:28:28;;;;;;;;;15.33;15.33;;;;;25.02;100.00;101366.66;5060144;27;45565;-74
2023/09/06 02:30:53;;;;;;;;;14.33;13.33;;;;;24.99;100.00;101364.13;5058969;28;47052;-75
2023/09/06 02:33:19;;;;;;;;;17.00;17.00;;;;;24.99;100.00;101371.34;5058534;28;45366;-73
2023/09/06 02:35:45;;;;;;;;;17.33;11.00;;;;;24.98;100.00;101362.34;5058215;28;65651;-73
2023/09/06 02:38:11;;;;;;;;;17.00;13.00;;;;;24.98;100.00;101358.75;5059164;28;45584;-74
2023/09/06 02:40:40;;;;;;;;;15.00;15.00;;;;;24.93;100.00;101367.06;5076295;28;46747;-74
2023/09/06 02:43:06;;;;;;;;;16.33;14.33;;;;;24.91;100.00;101357.25;5059163;28;45313;-73
2023/09/06 02:45:37;;;;;;;;;16.33;12.67;;;;;24.88;100.00;101360.09;5061548;28;45366;-74
2023/09/06 02:48:18;;;;;;;;;15.67;15.67;;;;;24.84;100.00;101370.13;5078089;27;45447;-74
2023/09/06 02:50:46;;;;;;;;;11.00;11.00;;;;;24.80;100.00;101355.84;5077037;27;46528;-73
2023/09/06 02:53:19;;;;;;;;;13.00;13.00;;;;;24.80;100.00;101357.69;5078543;27;45287;-74
2023/09/06 02:55:47;;;;;;;;;18.33;13.33;;;;;24.81;100.00;101354.91;5068835;27;45440;-74
2023/09/06 02:58:15;;;;;;;;;14.00;12.00;;;;;24.78;100.00;101352.34;5058838;28;45345;-75
2023/09/06 03:00:43;;;;;;;;;16.33;14.00;;;;;24.77;100.00;101355.13;5061088;28;45835;-73
2023/09/06 03:03:08;;;;;;;;;18.67;16.00;;;;;24.72;100.00;101360.69;5068617;27;45308;-74
2023/09/06 03:05:35;;;;;;;;;17.00;16.00;;;;;24.71;100.00;101363.44;5061574;28;45436;-74
2023/09/06 03:08:00;;;;;;;;;15.67;13.33;;;;;24.70;100.00;101372.47;5068158;28;45546;-74
2023/09/06 03:10:27;;;;;;;;;15.67;13.33;;;;;24.67;100.00;101362.69;5076661;28;60982;-73
2023/09/06 03:12:57;;;;;;;;;14.00;14.00;;;;;24.65;100.00;101367.25;5073797;27;45431;-76
2023/09/06 03:15:23;;;;;;;;;18.00;16.33;;;;;24.65;100.00;101363.69;5062597;28;45445;-76
2023/09/06 03:17:53;;;;;;;;;14.67;13.00;;;;;24.64;100.00;101370.03;5062315;28;45512;-74
2023/09/06 03:20:19;;;;;;;;;15.00;15.00;;;;;24.61;100.00;101362.94;5057488;28;46255;-74
2023/09/06 03:22:50;;;;;;;;;17.00;15.00;;;;;24.56;100.00;101371.22;5060795;28;45517;-74
2023/09/06 03:25:16;;;;;;;;;13.33;13.33;;;;;24.56;100.00;101371.22;5078446;27;45507;-74
2023/09/06 03:27:42;;;;;;;;;16.33;13.00;;;;;24.52;100.00;101360.59;5066345;27;45723;-74
2023/09/06 03:30:08;;;;;;;;;20.33;13.67;;;;;24.50;100.00;101366.06;5057707;28;45901;-74
2023/09/06 03:32:33;;;;;;;;;13.33;12.00;;;;;24.48;100.00;101364.34;5056785;28;45393;-74
2023/09/06 03:34:59;;;;;;;;;17.33;13.00;;;;;24.44;100.00;101359.97;5057090;28;59946;-74
2023/09/06 03:37:24;;;;;;;;;14.00;13.00;;;;;24.42;100.00;101360.06;5058348;28;45209;-75
2023/09/06 03:39:53;;;;;;;;;13.67;11.33;;;;;24.40;100.00;101361.94;5068440;28;70252;-73
2023/09/06 03:42:19;;;;;;;;;15.33;14.67;;;;;24.39;100.00;101364.69;5064998;27;45457;-75
2023/09/06 03:44:46;;;;;;;;;16.33;16.33;;;;;24.36;100.00;101363.00;5056962;27;66075;-74
2023/09/06 03:47:15;;;;;;;;;14.67;13.67;;;;;24.37;100.00;101369.25;5074252;28;45321;-74
2023/09/06 03:49:43;;;;;;;;;18.00;14.67;;;;;24.33;100.00;101363.06;5075870;28;45428;-73
2023/09/06 03:52:08;;;;;;;;;14.67;13.33;;;;;24.34;100.00;101369.34;5076794;27;45348;-76
2023/09/06 03:54:34;;;;;;;;;13.00;13.00;;;;;24.29;100.00;101366.84;5059235;27;45513;-74
2023/09/06 03:57:04;;;;;;;;;15.00;14.67;;;;;24.27;100.00;101368.69;5056895;28;52926;-76
2023/09/06 03:59:31;;;;;;;;;15.33;15.33;;;;;24.25;100.00;101365.19;5057524;28;45540;-74
2023/09/06 04:01:57;;;;;;;;;14.33;14.33;;;;;24.21;100.00;101366.22;5070858;28;45568;-74
2023/09/06 04:04:23;;;;;;;;;15.00;13.67;;;;;24.19;100.00;101370.81;5072843;28;45473;-74
2023/09/06 04:06:48;;;;;;;;;15.33;15.33;;;;;24.19;100.00;101373.50;5065199;27;45459;-74
2023/09/06 04:09:14;;;;;;;;;13.67;12.00;;;;;24.18;100.00;101374.41;5055966;28;46126;-74
2023/09/06 04:11:40;;;;;;;;;14.33;14.33;;;;;24.17;100.00;101381.63;5065916;28;45414;-74
2023/09/06 04:14:07;;;;;;;;;15.33;15.33;;;;;24.16;100.00;101381.69;5073877;27;45369;-73
2023/09/06 04:16:34;;;;;;;;;17.33;13.00;;;;;24.13;100.00;101371.00;5075527;28;45792;-74
2023/09/06 04:19:01;;;;;;;;;18.33;15.33;;;;;24.13;100.00;101381.81;5077226;27;46570;-74
2023/09/06 04:21:26;;;;;;;;;17.00;15.00;;;;;24.10;100.00;101381.94;5073410;27;45289;-74
2023/09/06 04:23:51;;;;;;;;;20.33;17.33;;;;;24.08;100.00;101381.13;5066417;27;61411;-74
2023/09/06 04:26:17;;;;;;;;;18.67;15.67;;;;;24.07;100.00;101382.91;5059050;28;45461;-73
2023/09/06 04:28:42;;;;;;;;;15.33;14.00;;;;;24.03;100.00;101383.97;5059479;28;46378;-74
2023/09/06 04:31:08;;;;;;;;;18.67;15.67;;;;;24.04;100.00;101381.22;5063667;27;45549;-73
2023/09/06 04:33:33;;;;;;;;;17.33;14.67;;;;;24.00;100.00;101370.59;5058385;28;45420;-74
2023/09/06 04:35:59;;;;;;;;;23.00;16.00;;;;;24.02;100.00;101374.09;5056530;28;59395;-76
2023/09/06 04:38:24;;;;;;;;;18.33;15.33;;;;;24.01;100.00;101373.22;5060510;28;64271;-75
2023/09/06 04:40:51;;;;;;;;;15.33;13.67;;;;;23.97;100.00;101374.28;5075484;28;56949;-73
2023/09/06 04:43:18;;;;;;;;;17.67;16.00;;;;;23.98;100.00;101375.16;5076091;28;45421;-75
2023/09/06 04:45:44;;;;;;;;;16.00;15.33;;;;;24.01;100.00;101372.34;5071868;28;45527;-74
2023/09/06 04:48:11;;;;;;;;;14.67;13.67;;;;;23.95;100.00;101378.84;5075524;28;45462;-73
2023/09/06 04:50:37;;;;;;;;;16.33;15.00;;;;;24.00;100.00;101390.34;5062024;27;45454;-74
2023/09/06 04:53:03;;;;;;;;;13.67;13.67;;;;;23.98;100.00;101381.44;5056908;28;45337;-73
2023/09/06 04:55:33;;;;;;;;;18.33;13.67;;;;;23.96;100.00;101383.28;5056833;28;45500;-73
2023/09/06 04:58:00;;;;;;;;;16.33;15.00;;;;;23.91;100.00;101382.56;5056581;28;46548;-75
2023/09/06 05:00:30;;;;;;;;;15.00;12.33;;;;;23.89;100.00;101384.47;5057866;28;45439;-74
2023/09/06 05:02:56;;;;;;;;;16.00;15.00;;;;;23.88;100.00;101388.09;5068915;27;46077;-73
2023/09/06 05:05:22;;;;;;;;;13.67;13.67;;;;;23.85;100.00;101381.91;5157554;22;46653;-73
2023/09/06 05:07:47;;;;;;;;;19.00;16.00;;;;;23.82;100.00;101385.63;5037829;28;46261;-73
2023/09/06 05:10:13;;;;;;;;;14.33;14.33;;;;;23.81;100.00;101391.97;5026988;28;65714;-73
2023/09/06 05:12:39;;;;;;;;;15.33;12.67;;;;;23.79;100.00;101385.72;5028942;28;45474;-73
2023/09/06 05:15:05;;;;;;;;;15.67;14.67;;;;;23.83;100.00;101391.91;5032211;28;45541;-73
2023/09/06 05:17:32;;;;;;;;;20.00;15.00;;;;;23.87;100.00;101388.16;5018152;28;47058;-75
2023/09/06 05:20:32;;;;;;;;;16.00;13.33;;;;;23.85;100.00;101387.31;5022048;28;45387;-73
2023/09/06 05:23:00;;;;;;;;;18.67;16.00;;;;;23.87;100.00;101385.47;5023800;28;45442;-73
2023/09/06 05:25:25;;;;;;;;;18.67;14.67;;;;;23.85;100.00;101382.78;5029211;28;45581;-73
2023/09/06 05:27:54;;;;;;;;;22.67;19.33;;;;;23.84;100.00;101385.56;5039425;28;46393;-73
2023/09/06 05:30:19;;;;;;;;;16.67;16.00;;;;;23.83;100.00;101384.69;5038663;28;45273;-73
2023/09/06 05:32:45;;;;;;;;;14.67;13.67;;;;;23.83;100.00;101391.91;5018946;28;64507;-73
2023/09/06 05:35:10;;;;;;;;;15.33;15.33;;;;;23.82;100.00;101382.03;5019812;28;45212;-74
2023/09/06 05:37:37;;;;;;;;;16.00;14.00;;;;;23.88;100.00;101404.28;5019702;28;46724;-73
2023/09/06 05:40:05;;;;;;;;;20.33;15.67;;;;;23.87;100.00;101396.25;5032968;28;45429;-73
2023/09/06 05:42:30;;;;;;;;;16.33;15.00;;;;;23.85;100.00;101388.19;5038058;28;45328;-73
2023/09/06 05:44:56;;;;;;;;;13.33;13.33;;;;;23.87;100.00;101393.56;5021254;28;45227;-74
2023/09/06 05:47:21;;;;;;;;;20.33;16.67;;;;;23.89;100.00;101403.34;5021819;28;46277;-73
2023/09/06 05:49:48;;;;;;;;;21.33;16.67;;;;;23.90;100.00;101401.53;5039328;28;49167;-74
2023/09/06 05:52:13;;;;;;;;;16.67;16.67;;;;;23.91;100.00;101401.47;5027519;28;45431;-74
2023/09/06 05:54:38;;;;;;;;;15.33;15.33;;;;;23.93;100.00;101406.81;5036264;28;45453;-74
2023/09/06 05:57:05;;;;;;;;;20.67;16.33;;;;;23.95;100.00;101405.81;5026051;28;70985;-75
2023/09/06 05:59:30;;;;;;;;;21.67;14.67;;;;;23.96;100.00;101404.00;5035546;28;45550;-73
2023/09/06 06:01:55;;;;;;;;;17.33;16.00;;;;;23.98;100.00;101403.03;5033390;28;45522;-73
2023/09/06 06:04:21;;;;;;;;;18.67;17.00;;;;;23.99;100.00;101403.91;5037386;28;59706;-73
2023/09/06 06:06:47;;;;;;;;;15.67;14.67;;;;;24.03;100.00;101400.16;5023867;28;69088;-74
2023/09/06 06:09:15;;;;;;;;;19.67;15.33;;;;;24.05;100.00;101411.78;5023191;28;45370;-74
2023/09/06 06:11:40;;;;;;;;;19.33;15.00;;;;;24.09;100.00;101413.44;5037353;28;45427;-73
2023/09/06 06:14:06;;;;;;;;;17.00;14.67;;;;;24.13;100.00;101416.88;5034588;28;45423;-74
2023/09/06 06:16:31;;;;;;;;;17.00;14.67;;;;;24.17;100.00;101419.41;5032825;28;46146;-74
2023/09/06 06:18:57;;;;;;;;;18.00;17.33;;;;;24.19;100.00;101412.16;5036881;28;45414;-75
2023/09/06 06:21:24;;;;;;;;;19.00;15.67;;;;;24.25;100.00;101413.75;5027609;28;62852;-73
2023/09/06 06:23:49;;;;;;;;;16.00;15.33;;;;;24.27;100.00;101417.28;5025146;28;45581;-77
2023/09/06 06:26:19;;;;;;;;;19.00;16.00;;;;;24.27;100.00;101420.84;5025679;28;46679;-75
2023/09/06 06:28:44;;;;;;;;;13.00;12.67;;;;;24.33;100.00;101418.84;5021407;28;46807;-74
2023/09/06 06:31:10;;;;;;;;;15.00;13.67;;;;;24.34;100.00;101428.72;5032196;28;45527;-75
2023/09/06 06:33:35;;;;;;;;;13.67;12.00;;;;;24.39;100.00;101422.25;5027552;28;45455;-76
2023/09/06 06:36:01;;;;;;;;;14.33;13.33;;;;;24.41;100.00;101428.47;5028590;28;46369;-75
2023/09/06 06:38:26;;;;;;;;;13.33;13.33;;;;;24.45;100.00;101426.53;5026207;28;45467;-74
2023/09/06 06:40:51;;;;;;;;;14.67;11.00;;;;;24.47;100.00;101425.56;5024638;28;66477;-74
2023/09/06 06:43:17;;;;;;;;;12.00;10.67;;;;;24.54;100.00;101429.78;5024006;28;45567;-75
2023/09/06 06:45:47;;;;;;;;;13.00;11.00;;;;;24.61;100.00;101443.03;5027461;28;68118;-75
2023/09/06 06:48:12;;;;;;;;;13.67;12.67;;;;;24.63;100.00;101442.06;5031515;28;45457;-75
2023/09/06 06:50:38;;;;;;;;;17.33;15.67;;;;;24.62;100.00;101440.31;5023974;28;45482;-73
2023/09/06 06:53:03;;;;;;;;;11.33;11.33;;;;;24.68;100.00;101431.97;5030111;28;45295;-75
2023/09/06 06:55:29;;;;;;;;;13.67;12.33;;;;;24.71;100.00;101439.94;5028507;28;45844;-72
2023/09/06 06:57:54;;;;;;;;;15.67;12.00;;;;;24.76;100.00;101432.53;5022869;28;45454;-73
2023/09/06 07:00:19;;;;;;;;;16.00;13.00;;;;;24.82;100.00;101437.72;5022812;28;63244;-74
2023/09/06 07:02:45;;;;;;;;;15.00;12.33;;;;;24.86;100.00;101437.59;5023262;28;47216;-77
2023/09/06 07:05:11;;;;;;;;;13.00;13.00;;;;;24.94;100.00;101438.19;5032090;28;46650;-77
2023/09/06 07:07:37;;;;;;;;;14.00;12.00;;;;;25.04;100.00;101436.88;5025112;28;45521;-79
2023/09/06 07:10:03;;;;;;;;;13.67;12.00;;;;;25.16;100.00;101440.94;5032210;28;65121;-78
2023/09/06 07:12:29;;;;;;;;;13.00;11.00;;;;;25.23;100.00;101439.75;5025339;28;45289;-78
2023/09/06 07:14:55;;;;;;;;;11.67;11.67;;;;;25.31;100.00;101445.75;5021987;28;47660;-77
2023/09/06 07:17:20;;;;;;;;;12.00;12.00;;;;;25.38;100.00;101446.38;5022925;28;45479;-76
2023/09/06 07:19:46;;;;;;;;;11.67;10.67;;;;;25.45;100.00;101443.34;5024077;28;45379;-76
2023/09/06 07:22:11;;;;;;;;;13.33;11.00;;;;;25.51;100.00;101448.47;5024664;28;58802;-78
2023/09/06 07:24:37;;;;;;;;;13.67;12.00;;;;;25.59;100.00;101456.31;5020090;28;67488;-77
2023/09/06 07:27:02;;;;;;;;;16.00;13.33;;;;;25.66;100.00;101446.97;5027448;28;45525;-78
2023/09/06 07:29:28;;;;;;;;;12.67;12.67;;;;;25.71;100.00;101455.78;5020138;28;45887;-79
2023/09/06 07:31:55;;;;;;;;;12.00;11.00;;;;;25.78;100.00;101451.91;5027758;28;45723;-78
2023/09/06 07:34:20;;;;;;;;;11.33;11.33;;;;;25.83;100.00;101454.41;5023495;28;46252;-79
2023/09/06 07:36:45;;;;;;;;;11.00;9.67;;;;;25.84;100.00;101446.25;5030608;28;45469;-77
2023/09/06 07:39:11;;;;;;;;;10.67;10.67;;;;;25.91;100.00;101452.25;5027369;28;60963;-78
2023/09/06 07:41:37;;;;;;;;;11.00;11.00;;;;;25.98;100.00;101455.56;5024745;28;45454;-77
2023/09/06 07:44:02;;;;;;;;;15.00;13.33;;;;;26.01;100.00;101452.75;5021741;28;46380;-77
2023/09/06 07:46:29;;;;;;;;;17.00;13.33;;;;;26.08;100.00;101457.81;5025336;28;46810;-77
2023/09/06 07:48:55;;;;;;;;;13.00;13.00;;;;;26.13;100.00;101461.19;5025252;28;45563;-78
2023/09/06 07:51:20;;;;;;;;;18.33;10.67;;;;;26.17;100.00;101459.25;5028683;28;45483;-76
2023/09/06 07:53:45;;;;;;;;;15.67;12.67;;;;;26.23;100.00;101458.97;5025509;28;45517;-78
2023/09/06 07:56:11;;;;;;;;;13.67;11.00;;;;;26.31;100.00;101461.34;5024379;28;45372;-77
2023/09/06 07:58:36;;;;;;;;;10.67;10.00;;;;;26.34;100.00;101462.09;5034846;28;45525;-77
2023/09/06 08:01:02;;;;;;;;;12.33;11.33;;;;;26.43;100.00;101465.38;5037941;28;61773;-78
2023/09/06 08:03:27;;;;;;;;;10.67;10.67;;;;;26.45;100.00;101461.63;5022247;28;67095;-77
2023/09/06 08:05:52;;;;;;;;;12.33;12.33;;;;;26.51;100.00;101455.94;5032889;28;70026;-77
2023/09/06 08:08:18;;;;;;;;;12.00;12.00;;;;;26.56;100.00;101466.56;5022855;28;58828;-77
2023/09/06 08:10:43;;;;;;;;;12.67;12.67;;;;;26.59;100.00;101474.56;5020491;28;62267;-76
2023/09/06 08:13:09;;;;;;;;;14.00;11.67;;;;;26.68;100.00;101467.81;5029674;28;46639;-76
2023/09/06 08:15:38;;;;;;;;;12.67;12.67;;;;;26.72;100.00;101466.75;5024039;28;45355;-76
2023/09/06 08:18:04;;;;;;;;;10.67;10.33;;;;;26.78;100.00;101472.75;5020994;28;45455;-77
2023/09/06 08:20:31;;;;;;;;;11.67;10.00;;;;;26.80;100.00;101470.00;5030413;28;45611;-77
2023/09/06 08:22:56;;;;;;;;;15.67;14.00;;;;;26.87;100.00;101466.03;5025600;28;46525;-78
2023/09/06 08:25:22;;;;;;;;;15.67;12.33;;;;;26.89;100.00;101465.00;5027971;28;56693;-78
2023/09/06 08:27:49;;;;;;;;;16.33;12.00;;;;;26.94;100.00;101464.78;5023319;28;45405;-79
2023/09/06 08:30:15;;;;;;;;;10.00;9.67;;;;;27.02;100.00;101464.44;5030292;28;45296;-77
2023/09/06 08:32:42;;;;;;;;;13.67;13.00;;;;;27.06;100.00;101466.03;5030649;28;45710;-78
2023/09/06 08:35:08;;;;;;;;;10.67;10.00;;;;;27.12;100.00;101471.22;5024588;28;45388;-80
2023/09/06 08:37:34;;;;;;;;;13.67;13.33;;;;;27.19;100.00;101463.66;5025563;28;45418;-77
2023/09/06 08:40:01;;;;;;;;;13.33;11.00;;;;;27.23;100.00;101462.56;5032774;28;45351;-77
2023/09/06 08:42:27;;;;;;;;;11.00;9.00;;;;;27.27;100.00;101467.75;5030451;28;46558;-77
2023/09/06 08:44:54;;;;;;;;;11.33;11.00;;;;;27.38;100.00;101475.38;5028412;28;45446;-77
2023/09/06 08:47:21;;;;;;;;;11.00;11.00;;;;;27.45;100.00;101468.69;5023126;28;66671;-78
2023/09/06 08:49:47;;;;;;;;;11.67;9.33;;;;;27.48;100.00;101462.22;5026955;28;45506;-79
2023/09/06 08:52:14;;;;;;;;;11.00;9.00;;;;;27.54;100.00;101462.81;5032451;28;46374;-78
2023/09/06 08:54:41;;;;;;;;;13.33;11.33;;;;;27.60;100.00;101473.34;5025542;28;45450;-78
2023/09/06 08:57:06;;;;;;;;;11.33;11.00;;;;;27.67;100.00;101469.38;5021265;28;45143;-79
2023/09/06 08:59:33;;;;;;;;;9.33;8.67;;;;;27.72;100.00;101469.19;5027470;28;56587;-78
2023/09/06 09:01:59;;;;;;;;;13.00;9.67;;;;;27.80;100.00;101475.06;5029731;28;47449;-78
2023/09/06 09:04:24;;;;;;;;;11.00;11.00;;;;;27.84;100.00;101473.09;5026411;28;68956;-78
2023/09/06 09:06:49;;;;;;;;;11.00;10.00;;;;;27.89;100.00;101466.47;5030256;28;65707;-77
2023/09/06 09:09:16;;;;;;;;;10.00;8.67;;;;;27.99;100.00;101466.00;5022200;28;64638;-77
2023/09/06 09:11:59;;;;;;;;;11.33;9.00;;;;;28.14;100.00;101460.66;5024113;28;47565;-77
2023/09/06 09:14:25;;;;;;;;;10.33;9.33;;;;;28.17;100.00;101454.16;5026888;28;65760;-77
2023/09/06 09:16:58;;;;;;;;;15.00;11.33;;;;;28.30;100.00;101459.84;5023849;28;46327;-77
2023/09/06 09:19:24;;;;;;;;;11.00;10.67;;;;;28.33;100.00;101457.00;5029299;28;45521;-77
2023/09/06 09:21:50;;;;;;;;;13.00;10.33;;;;;28.35;100.00;101461.41;5024815;28;46603;-77
2023/09/06 09:24:36;;;;;;;;;13.00;11.33;;;;;28.48;100.00;101463.44;5027186;28;45478;-77
2023/09/06 09:27:03;;;;;;;;;12.33;11.00;;;;;28.50;100.00;101454.28;5025094;28;45477;-77
2023/09/06 09:29:29;;;;;;;;;12.00;12.00;;;;;28.54;100.00;101458.56;5024867;28;46266;-77
2023/09/06 09:32:00;;;;;;;;;9.67;9.67;;;;;28.61;100.00;101465.44;5025578;28;46916;-77
2023/09/06 09:34:25;;;;;;;;;11.00;9.00;;;;;28.69;100.00;101463.16;5022655;28;45466;-74
2023/09/06 09:36:51;;;;;;;;;11.00;9.67;;;;;28.74;100.00;101456.59;5039941;28;68736;-76
2023/09/06 09:39:18;;;;;;;;;11.67;10.00;;;;;28.81;100.00;101458.88;5026199;28;45483;-76
2023/09/06 09:41:44;;;;;;;;;11.67;10.00;;;;;28.83;100.00;101456.97;5023797;28;46667;-77
2023/09/06 09:44:13;;;;;;;;;10.00;9.33;;;;;28.93;100.00;101460.06;5023667;28;45576;-77
2023/09/06 09:46:39;;;;;;;;;9.33;8.67;;;;;28.99;100.00;101458.88;5023884;28;45459;-77
2023/09/06 09:49:08;;;;;;;;;9.00;9.00;;;;;29.06;100.00;101457.56;5028093;28;46475;-77
2023/09/06 09:51:34;;;;;;;;;13.00;10.00;;;;;29.14;100.00;101461.59;5027065;28;46937;-77
2023/09/06 09:54:02;;;;;;;;;8.67;8.33;;;;;29.18;100.00;101457.72;5028495;28;45436;-76
2023/09/06 09:56:28;;;;;;;;;8.33;8.33;;;;;29.29;100.00;101457.09;5029488;28;45453;-78
2023/09/06 09:58:54;;;;;;;;;12.00;9.00;;;;;29.37;100.00;101454.84;5029572;28;45360;-78
2023/09/06 10:01:20;;;;;;;;;9.33;8.00;;;;;29.47;100.00;101457.91;5028689;28;46769;-78
2023/09/06 10:03:49;;;;;;;;;12.33;10.67;;;;;29.58;100.00;101460.91;5029357;28;69220;-77
2023/09/06 10:06:16;;;;;;;;;11.67;10.33;;;;;29.68;100.00;101458.53;5036669;28;45636;-77
2023/09/06 10:08:45;;;;;;;;;11.00;8.67;;;;;29.78;100.00;101456.16;5031602;28;46005;-77
2023/09/06 10:11:11;;;;;;;;;8.33;8.33;;;;;29.85;100.00;101443.91;5032731;28;46201;-77
2023/09/06 10:13:39;;;;;;;;;9.33;8.33;;;;;29.92;100.00;101439.84;5026907;28;45495;-78
2023/09/06 10:16:06;;;;;;;;;13.00;9.00;;;;;30.02;100.00;101444.63;5027967;28;45595;-78
2023/09/06 10:18:31;;;;;;;;;8.33;7.00;;;;;30.07;100.00;101443.47;5025158;28;45435;-79
2023/09/06 10:20:57;;;;;;;;;11.00;10.00;;;;;30.14;100.00;101442.16;5026636;28;47562;-78
2023/09/06 10:23:23;;;;;;;;;9.00;9.00;;;;;30.21;100.00;101438.97;5027967;28;45476;-77
2023/09/06 10:25:51;;;;;;;;;10.67;9.33;;;;;30.29;100.00;101440.34;5031960;28;45610;-79
2023/09/06 10:28:19;;;;;;;;;11.00;11.00;;;;;30.38;100.00;101446.09;5032825;28;45509;-78
2023/09/06 10:30:51;;;;;;;;;11.00;9.00;;;;;30.45;100.00;101439.28;5034966;28;46661;-78
2023/09/06 10:33:42;;;;;;;;;11.00;10.67;;;;;30.58;100.00;101438.53;5025094;28;45375;-78
2023/09/06 10:36:09;;;;;;;;;11.00;9.00;;;;;30.66;100.00;101434.31;5036419;28;45458;-78
2023/09/06 10:38:52;;;;;;;;;11.00;11.00;;;;;30.77;100.00;101429.09;5033560;28;45586;-79
2023/09/06 10:41:22;;;;;;;;;11.33;9.67;;;;;30.84;100.00;101431.41;5022461;28;48482;-79
2023/09/06 10:44:03;;;;;;;;;8.33;8.00;;;;;30.91;100.00;101420.03;5024300;28;45213;-78
2023/09/06 10:46:38;;;;;;;;;13.33;10.33;;;;;31.01;100.00;101414.88;5035727;28;45391;-78
2023/09/06 10:49:12;;;;;;;;;8.67;8.67;;;;;31.08;100.00;101409.88;5020311;28;45570;-79
2023/09/06 10:51:55;;;;;;;;;10.67;10.67;;;;;31.19;100.00;101407.31;5024946;28;47442;-78
2023/09/06 10:54:22;;;;;;;;;8.67;8.67;;;;;31.31;100.00;101409.25;5026648;28;45519;-79
2023/09/06 10:56:57;;;;;;;;;12.00;10.00;;;;;31.42;100.00;101411.25;5031930;28;46808;-79
2023/09/06 10:59:22;;;;;;;;;9.00;6.33;;;;;31.51;100.00;101406.03;5037648;28;45446;-78
2023/09/06 11:02:07;;;;;;;;;12.33;9.67;;;;;31.62;100.00;101404.44;5045341;28;67994;-78